createdAt,value
2018-09-21T00:01:07.622Z,3.90
2018-09-21T00:03:35.684Z,4.30
2018-09-21T00:06:09.942Z,3.60
2018-09-21T00:08:37.596Z,3.33
2018-09-21T00:11:05.698Z,3.20
2018-09-21T00:13:34.384Z,4.00
2018-09-21T00:16:02.431Z,3.13
2018-09-21T00:18:30.727Z,3.17
2018-09-21T00:20:58.363Z,3.43
2018-09-21T00:23:29.846Z,3.50
2018-09-21T00:25:57.762Z,3.87
2018-09-21T00:28:30.031Z,3.63
2018-09-21T00:30:57.659Z,3.70
2018-09-21T00:33:25.464Z,5.50
2018-09-21T00:35:53.090Z,3.63
2018-09-21T00:38:20.963Z,3.97
2018-09-21T00:43:19.651Z,4.33
2018-09-21T00:45:48.066Z,3.83
2018-09-21T00:48:16.512Z,4.27
2018-09-21T00:50:44.657Z,3.60
2018-09-21T00:53:14.006Z,4.67
2018-09-21T00:55:42.599Z,4.17
2018-09-21T00:58:10.049Z,3.77
2018-09-21T01:00:37.882Z,4.13
2018-09-21T01:03:10.059Z,3.63
2018-09-21T01:05:37.491Z,3.72
2018-09-21T01:08:09.037Z,4.03
2018-09-21T01:10:36.466Z,3.60
2018-09-21T01:13:03.904Z,3.83
2018-09-21T01:15:31.342Z,4.27
2018-09-21T01:17:59.258Z,3.70
2018-09-21T01:20:31.459Z,3.80
2018-09-21T01:22:58.971Z,4.20
2018-09-21T01:25:26.340Z,4.07
2018-09-21T01:27:54.982Z,4.03
2018-09-21T01:30:22.538Z,4.40
2018-09-21T01:32:49.915Z,4.37
2018-09-21T01:35:17.397Z,3.77
2018-09-21T01:37:45.402Z,4.47
2018-09-21T01:40:17.450Z,4.43
2018-09-21T01:42:44.767Z,4.50
2018-09-21T01:45:12.180Z,3.93
2018-09-21T01:47:39.783Z,4.53
2018-09-21T01:50:11.319Z,4.70
2018-09-21T01:52:38.656Z,4.70
2018-09-21T01:55:06.259Z,4.50
2018-09-21T01:57:33.549Z,5.77
2018-09-21T02:00:00.842Z,4.50
2018-09-21T02:02:28.999Z,4.40
2018-09-21T02:04:56.508Z,4.40
2018-09-21T02:07:23.954Z,4.43
2018-09-21T02:09:51.285Z,4.90
2018-09-21T02:12:20.740Z,4.80
2018-09-21T02:14:48.723Z,4.30
2018-09-21T02:19:52.502Z,4.70
2018-09-21T02:24:45.244Z,4.73
2018-09-21T02:27:12.747Z,5.10
2018-09-21T02:29:44.825Z,4.90
2018-09-21T02:32:16.349Z,4.50
2018-09-21T02:34:48.467Z,5.10
2018-09-21T02:37:19.941Z,5.33
2018-09-21T02:39:47.800Z,4.60
2018-09-21T02:42:19.889Z,5.00
2018-09-21T02:44:47.416Z,4.67
2018-09-21T02:49:55.101Z,4.50
2018-09-21T02:52:23.281Z,4.80
2018-09-21T02:54:51.665Z,5.83
2018-09-21T02:57:19.171Z,5.90
2018-09-21T02:59:46.524Z,5.00
2018-09-21T03:02:13.952Z,5.20
2018-09-21T03:04:46.515Z,4.77
2018-09-21T03:07:14.544Z,5.00
2018-09-21T03:09:42.002Z,4.67
2018-09-21T03:12:10.124Z,4.67
2018-09-21T03:14:37.490Z,4.70
2018-09-21T03:17:04.783Z,5.00
2018-09-21T03:19:32.287Z,5.40
2018-09-21T03:21:59.700Z,5.40
2018-09-21T03:24:27.220Z,5.33
2018-09-21T03:26:54.564Z,4.47
2018-09-21T03:29:21.918Z,5.35
2018-09-21T03:34:16.388Z,5.28
2018-09-21T03:36:43.700Z,5.20
2018-09-21T03:39:12.600Z,5.10
2018-09-21T03:41:41.266Z,5.43
2018-09-21T03:44:09.330Z,5.00
2018-09-21T03:46:37.347Z,4.70
2018-09-21T03:49:04.899Z,5.57
2018-09-21T03:51:32.244Z,4.10
2018-09-21T03:53:59.678Z,5.00
2018-09-21T03:56:31.944Z,4.30
2018-09-21T03:59:01.335Z,5.03
2018-09-21T04:01:29.718Z,5.20
2018-09-21T04:03:59.255Z,4.87
2018-09-21T04:06:27.153Z,4.90
2018-09-21T04:08:54.942Z,4.83
2018-09-21T04:11:22.362Z,4.50
2018-09-21T04:13:50.893Z,4.80
2018-09-21T04:16:18.258Z,5.40
2018-09-21T04:18:46.306Z,6.07
2018-09-21T04:21:13.674Z,4.23
2018-09-21T04:23:41.142Z,5.17
2018-09-21T04:26:08.954Z,4.50
2018-09-21T04:28:37.707Z,4.63
2018-09-21T04:31:09.844Z,4.40
2018-09-21T04:33:37.294Z,4.87
2018-09-21T04:36:05.383Z,4.70
2018-09-21T04:38:34.111Z,4.20
2018-09-21T04:41:01.694Z,5.00
2018-09-21T04:43:29.021Z,4.93
2018-09-21T04:45:56.396Z,4.43
2018-09-21T04:48:23.592Z,4.57
2018-09-21T04:50:50.976Z,5.00
2018-09-21T04:53:18.629Z,4.53
2018-09-21T04:55:45.999Z,3.97
2018-09-21T04:58:13.347Z,4.50
2018-09-21T05:00:40.659Z,4.67
2018-09-21T05:03:08.488Z,4.27
2018-09-21T05:05:36.583Z,5.63
2018-09-21T05:08:04.411Z,3.97
2018-09-21T05:10:32.202Z,3.93
2018-09-21T05:12:59.573Z,5.23
2018-09-21T05:15:27.540Z,4.07
2018-09-21T05:17:54.906Z,4.57
2018-09-21T05:22:49.570Z,4.67
2018-09-21T05:25:17.021Z,5.00
2018-09-21T05:27:44.377Z,4.53
2018-09-21T05:30:11.717Z,4.47
2018-09-21T05:32:39.801Z,4.37
2018-09-21T05:35:07.234Z,4.80
2018-09-21T05:37:34.614Z,4.30
2018-09-21T05:40:02.041Z,3.97
2018-09-21T05:42:29.737Z,4.70
2018-09-21T05:44:57.131Z,4.10
2018-09-21T05:47:24.456Z,4.10
2018-09-21T05:49:52.590Z,4.60
2018-09-21T05:52:19.926Z,5.07
2018-09-21T05:54:47.270Z,4.90
2018-09-21T05:57:14.615Z,5.47
2018-09-21T05:59:41.927Z,4.60
2018-09-21T06:02:09.354Z,4.37
2018-09-21T06:04:36.693Z,5.20
2018-09-21T06:09:35.194Z,4.00
2018-09-21T06:12:02.530Z,4.27
2018-09-21T06:14:29.841Z,4.90
2018-09-21T06:16:57.225Z,4.10
2018-09-21T06:19:25.559Z,4.53
2018-09-21T06:21:52.859Z,4.87
2018-09-21T06:24:20.134Z,4.80
2018-09-21T06:26:47.463Z,5.70
2018-09-21T06:29:14.748Z,5.40
2018-09-21T06:31:42.110Z,4.73
2018-09-21T06:34:10.389Z,5.27
2018-09-21T06:36:40.330Z,4.43
2018-09-21T06:39:08.522Z,5.00
2018-09-21T06:41:35.958Z,5.50
2018-09-21T06:44:03.356Z,4.70
2018-09-21T06:46:30.821Z,5.30
2018-09-21T06:48:58.145Z,4.77
2018-09-21T06:51:25.514Z,4.63
2018-09-21T06:53:52.949Z,5.60
2018-09-21T06:56:20.346Z,4.73
2018-09-21T06:58:47.667Z,4.20
2018-09-21T07:01:14.990Z,4.73
2018-09-21T07:03:46.838Z,4.43
2018-09-21T07:06:14.155Z,4.80
2018-09-21T07:08:41.460Z,4.17
2018-09-21T07:11:09.493Z,4.50
2018-09-21T07:13:36.838Z,4.57
2018-09-21T07:16:04.286Z,4.80
2018-09-21T07:18:31.675Z,4.67
2018-09-21T07:20:58.958Z,4.13
2018-09-21T07:23:26.251Z,4.60
2018-09-21T07:25:53.577Z,5.20
2018-09-21T07:28:20.875Z,4.37
2018-09-21T07:30:48.157Z,4.57
2018-09-21T07:33:15.422Z,5.70
2018-09-21T07:35:42.759Z,4.00
2018-09-21T07:38:10.066Z,4.33
2018-09-21T07:40:37.383Z,4.70
2018-09-21T07:43:04.697Z,4.60
2018-09-21T07:45:32.192Z,4.30
2018-09-21T07:47:59.570Z,4.90
2018-09-21T07:50:26.934Z,3.90
2018-09-21T07:52:54.191Z,4.50
2018-09-21T07:55:21.535Z,5.20
2018-09-21T07:57:48.817Z,4.63
2018-09-21T08:00:16.098Z,4.27
2018-09-21T08:02:43.414Z,4.30
2018-09-21T08:05:10.782Z,4.87
2018-09-21T08:07:38.720Z,4.40
2018-09-21T08:10:05.982Z,3.97
2018-09-21T08:12:33.304Z,4.10
2018-09-21T08:15:00.546Z,4.30
2018-09-21T08:17:27.833Z,4.40
2018-09-21T08:19:55.217Z,4.70
2018-09-21T08:22:22.618Z,4.13
2018-09-21T08:24:49.927Z,4.40
2018-09-21T08:27:18.895Z,3.73
2018-09-21T08:29:46.166Z,3.60
2018-09-21T08:32:13.554Z,3.40
2018-09-21T08:34:40.868Z,4.60
2018-09-21T08:37:08.226Z,4.60
2018-09-21T08:39:35.486Z,3.67
2018-09-21T08:42:02.912Z,4.10
2018-09-21T08:44:30.237Z,3.77
2018-09-21T08:46:57.544Z,3.47
2018-09-21T08:49:24.821Z,3.83
2018-09-21T08:51:52.490Z,3.67
2018-09-21T08:54:19.918Z,3.37
2018-09-21T08:56:47.199Z,3.03
2018-09-21T08:59:14.517Z,2.80
2018-09-21T09:01:41.817Z,3.10
2018-09-21T09:04:09.339Z,3.43
2018-09-21T09:06:36.631Z,3.77
2018-09-21T09:09:06.004Z,2.63
2018-09-21T09:11:33.295Z,2.90
2018-09-21T09:14:00.609Z,2.50
2018-09-21T09:16:27.875Z,3.57
2018-09-21T09:18:55.180Z,3.90
2018-09-21T09:21:22.611Z,3.00
2018-09-21T09:23:49.881Z,2.90
2018-09-21T09:26:17.188Z,3.40
2018-09-21T09:28:44.497Z,3.30
2018-09-21T09:31:11.804Z,3.30
2018-09-21T09:33:39.137Z,3.30
2018-09-21T09:36:06.504Z,3.27
2018-09-21T09:38:33.814Z,3.17
2018-09-21T09:41:01.104Z,3.30
2018-09-21T09:43:28.474Z,2.60
2018-09-21T09:45:55.816Z,3.67
2018-09-21T09:48:23.177Z,3.70
2018-09-21T09:50:50.596Z,4.67
2018-09-21T09:53:18.426Z,9.57
2018-09-21T09:55:45.958Z,6.97
2018-09-21T09:58:13.295Z,5.80
2018-09-21T10:00:46.145Z,3.97
2018-09-21T10:03:13.530Z,4.67
2018-09-21T10:05:43.761Z,3.10
2018-09-21T10:08:12.340Z,1.67
2018-09-21T10:10:40.470Z,1.80
2018-09-21T10:13:07.968Z,2.27
2018-09-21T10:15:35.499Z,2.12
2018-09-21T10:18:03.163Z,1.92
2018-09-21T10:20:30.643Z,2.05
2018-09-21T10:22:57.914Z,2.83
2018-09-21T10:25:25.287Z,1.92
2018-09-21T10:27:53.523Z,1.85
2018-09-21T10:30:20.629Z,2.22
2018-09-21T10:32:48.002Z,2.55
2018-09-21T10:35:15.374Z,1.87
2018-09-21T10:37:42.635Z,1.98
2018-09-21T10:40:10.180Z,2.30
2018-09-21T10:42:37.533Z,1.77
2018-09-21T10:45:04.777Z,1.60
2018-09-21T10:47:32.062Z,1.60
2018-09-21T10:49:59.422Z,1.85
2018-09-21T10:52:26.746Z,1.80
2018-09-21T10:54:54.129Z,1.47
2018-09-21T10:57:21.431Z,1.70
2018-09-21T10:59:49.235Z,1.50
2018-09-21T11:02:16.539Z,1.70
2018-09-21T11:04:43.870Z,1.77
2018-09-21T11:07:11.268Z,1.75
2018-09-21T11:09:38.556Z,2.00
2018-09-21T11:12:05.866Z,2.17
2018-09-21T11:14:33.369Z,1.90
2018-09-21T11:17:00.670Z,1.75
2018-09-21T11:19:28.176Z,1.72
2018-09-21T11:21:55.964Z,2.42
2018-09-21T11:24:23.702Z,1.85
2018-09-21T11:26:51.506Z,2.55
2018-09-21T11:29:18.819Z,2.30
2018-09-21T11:31:46.431Z,2.37
2018-09-21T11:34:13.812Z,2.33
2018-09-21T11:36:41.255Z,2.00
2018-09-21T11:39:09.045Z,3.35
2018-09-21T11:41:36.499Z,2.60
2018-09-21T11:44:03.850Z,2.40
2018-09-21T11:46:31.239Z,2.55
2018-09-21T11:48:58.581Z,2.50
2018-09-21T11:51:25.947Z,2.25
2018-09-21T11:53:53.755Z,2.40
2018-09-21T11:56:21.191Z,2.33
2018-09-21T11:58:48.508Z,2.22
2018-09-21T12:01:15.831Z,1.85
2018-09-21T12:03:43.160Z,2.52
2018-09-21T12:06:10.573Z,2.25
2018-09-21T12:08:38.483Z,3.10
2018-09-21T12:11:06.034Z,2.60
2018-09-21T12:13:33.822Z,2.85
2018-09-21T12:16:01.143Z,2.60
2018-09-21T12:18:28.477Z,2.33
2018-09-21T12:20:56.226Z,2.87
2018-09-21T12:23:23.538Z,3.40
2018-09-21T12:25:51.068Z,3.50
2018-09-21T12:28:18.378Z,2.37
2018-09-21T12:30:45.663Z,3.17
2018-09-21T12:33:13.080Z,3.05
2018-09-21T12:35:40.358Z,4.20
2018-09-21T12:38:07.962Z,3.20
2018-09-21T12:40:35.268Z,2.92
2018-09-21T12:43:02.757Z,3.50
2018-09-21T12:45:30.089Z,3.10
2018-09-21T12:47:57.626Z,3.17
2018-09-21T12:50:25.043Z,3.35
2018-09-21T12:52:52.339Z,3.02
2018-09-21T12:55:19.611Z,3.67
2018-09-21T12:57:46.928Z,3.87
2018-09-21T13:00:14.266Z,2.95
2018-09-21T13:02:41.640Z,3.25
2018-09-21T13:05:09.013Z,3.00
2018-09-21T13:07:36.313Z,4.70
2018-09-21T13:10:03.798Z,3.40
2018-09-21T13:12:31.129Z,3.50
2018-09-21T13:14:58.483Z,4.15
2018-09-21T13:17:25.769Z,3.95
2018-09-21T13:19:53.078Z,3.92
2018-09-21T13:22:20.362Z,4.20
2018-09-21T13:24:47.764Z,4.67
2018-09-21T13:27:15.069Z,4.87
2018-09-21T13:29:42.499Z,3.45
2018-09-21T13:32:09.823Z,2.90
2018-09-21T13:34:37.202Z,2.10
2018-09-21T13:37:04.591Z,1.77
2018-09-21T13:39:31.920Z,1.72
2018-09-21T13:41:59.244Z,1.25
2018-09-21T13:44:26.619Z,1.52
2018-09-21T13:46:53.960Z,1.60
2018-09-21T13:49:21.460Z,1.30
2018-09-21T13:51:48.811Z,1.55
2018-09-21T13:54:16.246Z,1.52
2018-09-21T13:56:43.677Z,1.22
2018-09-21T13:59:11.046Z,1.50
2018-09-21T14:01:38.632Z,1.30
2018-09-21T14:04:06.051Z,1.10
2018-09-21T14:06:33.405Z,1.30
2018-09-21T14:09:00.818Z,1.57
2018-09-21T14:11:28.178Z,1.22
2018-09-21T14:13:55.551Z,1.40
2018-09-21T14:16:22.885Z,1.10
2018-09-21T14:18:50.806Z,1.40
2018-09-21T14:21:18.188Z,2.42
2018-09-21T14:23:45.584Z,1.37
2018-09-21T14:26:12.952Z,1.27
2018-09-21T14:28:40.295Z,1.42
2018-09-21T14:31:07.621Z,1.40
2018-09-21T14:33:34.928Z,1.30
2018-09-21T14:36:02.290Z,0.93
2018-09-21T14:38:30.274Z,1.25
2018-09-21T14:40:57.730Z,1.10
2018-09-21T14:43:25.141Z,1.22
2018-09-21T14:45:52.439Z,1.10
2018-09-21T14:48:19.789Z,0.93
2018-09-21T14:50:47.216Z,0.90
2018-09-21T14:53:14.548Z,1.30
2018-09-21T14:55:41.864Z,1.10
2018-09-21T14:58:09.253Z,1.00
2018-09-21T15:00:36.644Z,1.20
2018-09-21T15:03:03.985Z,1.00
2018-09-21T15:05:31.365Z,1.12
2018-09-21T15:07:58.696Z,0.90
2018-09-21T15:10:26.023Z,1.20
2018-09-21T15:12:53.434Z,1.40
2018-09-21T15:15:21.348Z,1.02
2018-09-21T15:17:48.721Z,1.10
2018-09-21T15:20:16.071Z,1.10
2018-09-21T15:22:43.423Z,1.00
2018-09-21T15:25:11.179Z,1.10
2018-09-21T15:27:38.563Z,1.30
2018-09-21T15:30:05.936Z,1.00
2018-09-21T15:32:33.388Z,2.33
2018-09-21T15:35:00.779Z,1.00
2018-09-21T15:37:28.790Z,1.20
2018-09-21T15:39:56.255Z,1.00
2018-09-21T15:42:27.697Z,1.10
2018-09-21T15:44:55.087Z,1.62
2018-09-21T15:47:22.474Z,1.40
2018-09-21T15:49:50.840Z,2.45
2018-09-21T15:52:20.637Z,1.20
2018-09-21T15:54:48.088Z,1.22
2018-09-21T15:57:16.167Z,1.02
2018-09-21T15:59:44.702Z,1.20
2018-09-21T16:02:12.289Z,1.32
2018-09-21T16:04:39.734Z,1.00
2018-09-21T16:07:07.141Z,1.00
2018-09-21T16:09:34.471Z,0.93
2018-09-21T16:12:01.765Z,0.88
2018-09-21T16:14:29.194Z,0.98
2018-09-21T16:16:56.414Z,0.90
2018-09-21T16:19:23.752Z,1.30
2018-09-21T16:21:51.133Z,1.20
2018-09-21T16:24:18.544Z,0.90
2018-09-21T16:26:45.777Z,1.02
2018-09-21T16:29:13.122Z,0.90
2018-09-21T16:31:40.463Z,1.12
2018-09-21T16:34:07.787Z,1.92
2018-09-21T16:36:35.142Z,1.00
2018-09-21T16:39:02.540Z,1.10
2018-09-21T16:41:29.815Z,1.20
2018-09-21T16:43:58.437Z,1.10
2018-09-21T16:48:52.695Z,1.00
2018-09-21T16:51:20.112Z,1.25
2018-09-21T16:53:47.866Z,1.85
2018-09-21T16:56:15.308Z,1.00
2018-09-21T16:58:42.677Z,1.00
2018-09-21T17:01:10.041Z,1.05
2018-09-21T17:03:37.525Z,0.90
2018-09-21T17:06:05.351Z,2.55
2018-09-21T17:11:00.808Z,1.15
2018-09-21T17:13:28.610Z,1.00
2018-09-21T17:18:35.020Z,1.10
2018-09-21T17:21:02.458Z,1.10
2018-09-21T17:23:34.332Z,1.02
2018-09-21T17:26:01.797Z,1.10
2018-09-21T17:28:29.157Z,0.90
2018-09-21T17:30:56.476Z,0.95
2018-09-21T17:33:23.863Z,1.10
2018-09-21T17:35:51.193Z,1.30
2018-09-21T17:38:18.701Z,1.10
2018-09-21T17:40:46.094Z,1.45
2018-09-21T17:43:13.892Z,1.10
2018-09-21T17:45:41.343Z,2.37
2018-09-21T17:48:08.671Z,1.05
2018-09-21T17:50:35.990Z,1.20
2018-09-21T17:53:03.370Z,1.00
2018-09-21T17:55:31.922Z,1.00
2018-09-21T17:57:59.430Z,1.60
2018-09-21T18:00:27.569Z,1.20
2018-09-21T18:02:54.936Z,1.10
2018-09-21T18:05:22.952Z,1.30
2018-09-21T18:07:51.341Z,0.95
2018-09-21T18:10:19.200Z,1.17
2018-09-21T18:12:47.160Z,1.40
2018-09-21T18:15:19.247Z,1.15
2018-09-21T18:17:46.819Z,2.15
2018-09-21T18:20:16.588Z,1.95
2018-09-21T18:25:15.052Z,1.37
2018-09-21T18:27:49.576Z,1.25
2018-09-21T18:30:22.421Z,1.30
2018-09-21T18:32:54.365Z,1.20
2018-09-21T18:35:22.324Z,1.20
2018-09-21T18:37:52.474Z,1.32
2018-09-21T18:40:20.445Z,1.50
2018-09-21T18:42:48.679Z,1.50
2018-09-21T18:45:16.434Z,1.20
2018-09-21T18:47:44.326Z,1.50
2018-09-21T18:50:12.810Z,1.30
2018-09-21T18:52:40.258Z,1.40
2018-09-21T18:55:07.670Z,1.32
2018-09-21T18:57:35.623Z,1.30
2018-09-21T19:00:06.226Z,1.32
2018-09-21T19:02:33.734Z,1.30
2018-09-21T19:05:01.866Z,1.25
2018-09-21T19:07:31.018Z,1.47
2018-09-21T19:09:59.606Z,1.55
2018-09-21T19:12:31.564Z,1.50
2018-09-21T19:15:00.107Z,1.45
2018-09-21T19:17:31.481Z,1.30
2018-09-21T19:19:59.050Z,1.25
2018-09-21T19:22:31.201Z,1.30
2018-09-21T19:25:03.888Z,2.05
2018-09-21T19:27:32.323Z,1.85
2018-09-21T19:30:04.330Z,1.40
2018-09-21T19:32:36.939Z,1.40
2018-09-21T19:35:09.879Z,1.40
2018-09-21T19:37:42.349Z,1.50
2018-09-21T19:40:10.334Z,1.55
2018-09-21T19:42:38.466Z,1.32
2018-09-21T19:45:06.137Z,1.05
2018-09-21T19:47:33.586Z,0.98
2018-09-21T19:50:06.389Z,1.30
2018-09-21T19:52:34.663Z,1.10
2018-09-21T19:55:02.135Z,1.70
2018-09-21T19:57:30.683Z,1.30
2018-09-21T19:59:58.308Z,1.32
2018-09-21T20:02:26.068Z,1.50
2018-09-21T20:04:53.597Z,1.20
2018-09-21T20:07:25.400Z,1.10
2018-09-21T20:09:53.219Z,1.40
2018-09-21T20:12:21.040Z,1.37
2018-09-21T20:14:48.470Z,1.35
2018-09-21T20:17:20.118Z,1.50
2018-09-21T20:22:14.373Z,1.20
2018-09-21T20:24:41.804Z,1.20
2018-09-21T20:27:09.823Z,1.50
2018-09-21T20:29:37.652Z,1.22
2018-09-21T20:32:10.838Z,1.10
2018-09-21T20:34:38.439Z,1.87
2018-09-21T20:37:05.844Z,1.35
2018-09-21T20:39:37.501Z,1.40
2018-09-21T20:42:04.954Z,1.35
2018-09-21T20:44:32.726Z,1.47
2018-09-21T20:47:02.586Z,1.57
2018-09-21T20:49:30.902Z,1.50
2018-09-21T20:51:58.632Z,1.37
2018-09-21T20:54:26.145Z,1.15
2018-09-21T20:56:54.056Z,1.42
2018-09-21T20:59:21.575Z,1.30
2018-09-21T21:01:51.426Z,1.20
2018-09-21T21:04:18.874Z,1.65
2018-09-21T21:06:50.650Z,1.45
2018-09-21T21:09:20.414Z,1.85
2018-09-21T21:11:52.303Z,1.47
2018-09-21T21:14:20.742Z,1.52
2018-09-21T21:16:48.507Z,1.60
2018-09-21T21:19:20.739Z,1.85
2018-09-21T21:21:48.066Z,1.98
2018-09-21T21:24:16.306Z,2.05
2018-09-21T21:26:43.740Z,2.10
2018-09-21T21:29:11.604Z,1.67
2018-09-21T21:31:39.546Z,1.82
2018-09-21T21:34:07.030Z,1.55
2018-09-21T21:36:34.454Z,1.85
2018-09-21T21:39:02.586Z,1.70
2018-09-21T21:41:30.086Z,1.50
2018-09-21T21:43:57.507Z,1.80
2018-09-21T21:46:25.036Z,1.35
2018-09-21T21:48:57.343Z,1.50
2018-09-21T21:51:24.820Z,1.60
2018-09-21T21:53:52.193Z,1.72
2018-09-21T21:56:19.726Z,1.62
2018-09-21T21:58:47.181Z,1.70
2018-09-21T22:01:19.976Z,1.60
2018-09-21T22:03:48.083Z,1.77
2018-09-21T22:06:16.612Z,1.60
2018-09-21T22:08:45.245Z,2.05
2018-09-21T22:11:18.186Z,2.10
2018-09-21T22:13:51.068Z,1.52
2018-09-21T22:16:18.890Z,1.92
2018-09-21T22:18:47.300Z,2.10
2018-09-21T22:21:14.739Z,2.20
2018-09-21T22:23:42.437Z,1.80
2018-09-21T22:26:10.190Z,2.02
2018-09-21T22:28:37.508Z,2.10
2018-09-21T22:31:06.024Z,2.20
2018-09-21T22:33:33.464Z,2.40
2018-09-21T22:36:01.099Z,2.00
2018-09-21T22:38:28.566Z,3.17
2018-09-21T22:40:56.177Z,2.35
2018-09-21T22:43:23.592Z,2.65
2018-09-21T22:45:51.035Z,2.80
2018-09-21T22:48:19.304Z,2.95
2018-09-21T22:50:47.310Z,2.95
2018-09-21T22:53:14.680Z,2.72
2018-09-21T22:55:47.175Z,4.78
2018-09-21T22:58:18.464Z,3.30
2018-09-21T23:00:45.931Z,3.72
2018-09-21T23:03:13.595Z,2.87
2018-09-21T23:05:40.926Z,3.35
2018-09-21T23:08:09.272Z,3.05
2018-09-21T23:10:36.742Z,3.02
2018-09-21T23:13:04.362Z,2.70
2018-09-21T23:15:32.466Z,1.80
2018-09-21T23:17:59.970Z,2.60
2018-09-21T23:20:27.313Z,2.05
2018-09-21T23:22:55.225Z,2.15
2018-09-21T23:25:22.661Z,2.10
2018-09-21T23:27:50.165Z,2.12
2018-09-21T23:32:44.425Z,2.60
2018-09-21T23:35:15.869Z,2.30
2018-09-21T23:37:43.257Z,2.50
2018-09-21T23:40:10.671Z,2.37
2018-09-21T23:42:38.333Z,2.50
2018-09-21T23:45:05.825Z,2.10
2018-09-21T23:47:33.288Z,2.58
2018-09-21T23:50:00.839Z,2.45
2018-09-21T23:52:28.194Z,2.95
2018-09-21T23:54:56.482Z,2.60
2018-09-21T23:57:25.074Z,2.70
2018-09-21T23:59:52.685Z,2.30
